Midnight Dream — 3EKF5 — position and weather

sailwx.info

Track history (hours):
 
Tides and Currents Weather Stations Pressure Air Temp Water Temp Dewpoint Dewpoint Depression Visibility Wind Speed Wind Dir Waves Ship Positions

Midnight Dream

Last reported at 2016-May-26 17:18 UTC. Time now 2016-May-29 03:57 UTC.
Position N 18°26' W 064°37'.

Length 90 m; draft 4.5 m.

Type: Cargo ship. MMSI: 372708000.

Date/timePositionNaut miles runAvg speedWind from/ knotsBaromVisibWave heightAir tempDewpointWater temp
2016-May-26 17:18N 18°26' W 064°37'0 0.0
2016-May-26 16:33N 18°26' W 064°37'0 0.0
2016-May-26 15:24N 18°26' W 064°37'0 0.0
2016-May-26 14:30N 18°26' W 064°37'1 0.1
2016-May-25 22:33N 18°24' W 064°36'0 0.4
2016-May-25 21:33N 18°24' W 064°35'0 0.0
2016-May-25 20:33N 18°24' W 064°35'0 0.0
2016-May-25 19:30N 18°24' W 064°35'0 0.0
2016-May-25 18:30N 18°24' W 064°35'0 0.0
2016-May-25 17:24N 18°24' W 064°35'0 0.0
2016-May-25 16:30N 18°24' W 064°35'0 0.0
2016-May-25 15:30N 18°24' W 064°35'0 0.0
2016-May-25 14:30N 18°24' W 064°35'0 0.0
2016-May-25 13:33N 18°24' W 064°35'0 0.0
2016-May-25 12:33N 18°24' W 064°35'0 0.0
2016-May-25 11:28N 18°24' W 064°35'92 9.2
2016-May-25 01:28N 17°43' W 063°08'39 8.8
2016-May-24 21:04N 17°26' W 062°32'5 9.2
2016-May-24 20:34N 17°24' W 062°28'9 9.2
2016-May-24 19:34N 17°20' W 062°19'9 9.0
2016-May-24 18:34N 17°16' W 062°10'9 9.0
2016-May-24 17:33N 17°12' W 062°02'9 9.0
2016-May-24 16:33N 17°08' W 061°53'2 2.0
2016-May-24 15:31N 17°07' W 061°51'0 0.0
2016-May-24 14:31N 17°07' W 061°51'0 0.0
2016-May-24 13:31N 17°07' W 061°51'0 0.0
2016-May-24 12:31N 17°07' W 061°51'1 1.3
2016-May-24 11:34N 17°08' W 061°52'2 1.6
2016-May-24 10:34N 17°09' W 061°54'2 1.9
2016-May-24 09:33N 17°09' W 061°56'8 8.0
2016-May-24 08:33N 17°09' W 062°04'83 7.4
2016-May-23 21:19N 17°47' W 063°21'87 9.7
2016-May-23 12:25N 18°16' W 064°47'3 0.1
2016-May-22 09:33N 18°17' W 064°50'11 9.8
2016-May-22 08:24N 18°20' W 064°38'  
2016-May-19 19:26N 18°26' W 064°37'0 0.0
2016-May-19 18:26N 18°26' W 064°37'0 0.0
2016-May-19 16:32N 18°26' W 064°37'1 0.0
2016-May-18 20:32N 18°25' W 064°36'1 0.7
2016-May-18 19:22N 18°24' W 064°35'64 9.3
2016-May-18 12:30N 17°58' W 063°34'19 9.4
2016-May-18 10:28N 17°51' W 063°15'9 9.4
2016-May-18 09:32N 17°48' W 063°07'75 8.4
2016-May-18 00:33N 16°52' W 062°15'4 1.4
2016-May-17 21:28N 16°48' W 062°13'8 8.9
2016-May-17 20:33N 16°54' W 062°07'1010.2
2016-May-17 19:33N 17°02' W 062°00'10 9.5
2016-May-17 18:33N 17°08' W 061°52'1 0.8
2016-May-17 17:33N 17°07' W 061°51'0 0.0
2016-May-17 16:33N 17°07' W 061°51'0 0.0
2016-May-17 15:33N 17°07' W 061°51'0 0.0
2016-May-17 14:33N 17°07' W 061°51'0 0.0
2016-May-17 13:33N 17°07' W 061°51'0 0.0
2016-May-17 12:33N 17°07' W 061°51'1 0.8
2016-May-17 11:33N 17°08' W 061°52'2 2.1
2016-May-17 10:31N 17°09' W 061°54'0 0.0
2016-May-17 09:31N 17°09' W 061°54'0 0.0
2016-May-17 08:31N 17°09' W 061°54'0 0.0
2016-May-17 07:31N 17°09' W 061°54'0 0.2
2016-May-17 06:34N 17°09' W 061°54'10 9.7
2016-May-17 05:33N 17°14' W 062°03'1010.2
2016-May-17 04:33N 17°18' W 062°12'14 9.6
2016-May-17 03:06N 17°24' W 062°26'45 9.8
2016-May-16 22:32N 17°43' W 063°08'  
Track history (hours):
 
Tides and Currents Weather Stations Pressure Air Temp Water Temp Dewpoint Dewpoint Depression Visibility Wind Speed Wind Dir Waves Ship Positions

Midnight Dream

Last reported at 2016-May-26 17:18 UTC. Time now 2016-May-29 03:57 UTC.
Position N 18°26' W 064°37'.

Length 90 m; draft 4.5 m.

Type: Cargo ship. MMSI: 372708000.

Date/timePositionNaut miles runAvg speedWind from/ knotsBaromVisibWave heightAir tempDewpointWater temp
2016-May-26 17:18N 18°26' W 064°37'0 0.0
2016-May-26 16:33N 18°26' W 064°37'0 0.0
2016-May-26 15:24N 18°26' W 064°37'0 0.0
2016-May-26 14:30N 18°26' W 064°37'1 0.1
2016-May-25 22:33N 18°24' W 064°36'0 0.4
2016-May-25 21:33N 18°24' W 064°35'0 0.0
2016-May-25 20:33N 18°24' W 064°35'0 0.0
2016-May-25 19:30N 18°24' W 064°35'0 0.0
2016-May-25 18:30N 18°24' W 064°35'0 0.0
2016-May-25 17:24N 18°24' W 064°35'0 0.0
2016-May-25 16:30N 18°24' W 064°35'0 0.0
2016-May-25 15:30N 18°24' W 064°35'0 0.0
2016-May-25 14:30N 18°24' W 064°35'0 0.0
2016-May-25 13:33N 18°24' W 064°35'0 0.0
2016-May-25 12:33N 18°24' W 064°35'0 0.0
2016-May-25 11:28N 18°24' W 064°35'92 9.2
2016-May-25 01:28N 17°43' W 063°08'39 8.8
2016-May-24 21:04N 17°26' W 062°32'5 9.2
2016-May-24 20:34N 17°24' W 062°28'9 9.2
2016-May-24 19:34N 17°20' W 062°19'9 9.0
2016-May-24 18:34N 17°16' W 062°10'9 9.0
2016-May-24 17:33N 17°12' W 062°02'9 9.0
2016-May-24 16:33N 17°08' W 061°53'2 2.0
2016-May-24 15:31N 17°07' W 061°51'0 0.0
2016-May-24 14:31N 17°07' W 061°51'0 0.0
2016-May-24 13:31N 17°07' W 061°51'0 0.0
2016-May-24 12:31N 17°07' W 061°51'1 1.3
2016-May-24 11:34N 17°08' W 061°52'2 1.6
2016-May-24 10:34N 17°09' W 061°54'2 1.9
2016-May-24 09:33N 17°09' W 061°56'8 8.0
2016-May-24 08:33N 17°09' W 062°04'83 7.4
2016-May-23 21:19N 17°47' W 063°21'87 9.7
2016-May-23 12:25N 18°16' W 064°47'3 0.1
2016-May-22 09:33N 18°17' W 064°50'11 9.8
2016-May-22 08:24N 18°20' W 064°38'  
2016-May-19 19:26N 18°26' W 064°37'0 0.0
2016-May-19 18:26N 18°26' W 064°37'0 0.0
2016-May-19 16:32N 18°26' W 064°37'1 0.0
2016-May-18 20:32N 18°25' W 064°36'1 0.7
2016-May-18 19:22N 18°24' W 064°35'64 9.3
2016-May-18 12:30N 17°58' W 063°34'19 9.4
2016-May-18 10:28N 17°51' W 063°15'9 9.4
2016-May-18 09:32N 17°48' W 063°07'75 8.4
2016-May-18 00:33N 16°52' W 062°15'4 1.4
2016-May-17 21:28N 16°48' W 062°13'8 8.9
2016-May-17 20:33N 16°54' W 062°07'1010.2
2016-May-17 19:33N 17°02' W 062°00'10 9.5
2016-May-17 18:33N 17°08' W 061°52'1 0.8
2016-May-17 17:33N 17°07' W 061°51'0 0.0
2016-May-17 16:33N 17°07' W 061°51'0 0.0
2016-May-17 15:33N 17°07' W 061°51'0 0.0
2016-May-17 14:33N 17°07' W 061°51'0 0.0
2016-May-17 13:33N 17°07' W 061°51'0 0.0
2016-May-17 12:33N 17°07' W 061°51'1 0.8
2016-May-17 11:33N 17°08' W 061°52'2 2.1
2016-May-17 10:31N 17°09' W 061°54'0 0.0
2016-May-17 09:31N 17°09' W 061°54'0 0.0
2016-May-17 08:31N 17°09' W 061°54'0 0.0
2016-May-17 07:31N 17°09' W 061°54'0 0.2
2016-May-17 06:34N 17°09' W 061°54'10 9.7
2016-May-17 05:33N 17°14' W 062°03'1010.2
2016-May-17 04:33N 17°18' W 062°12'14 9.6
2016-May-17 03:06N 17°24' W 062°26'45 9.8
2016-May-16 22:32N 17°43' W 063°08'  

Dump ship's entire track history